SE Lincoln WX Station Historical Data
 
Daily Summary for October 14, 2019 Units:  English    Metric   Both
Daily Weekly Monthly Yearly Custom
  Current: High: Low: Average:
Temperature: 34.3 °F 37.1 °F 33.2 °F 34.7 °F
Dew Point: 32 °F 32.7 °F 30.3 °F 31.4 °F
Humidity: 91% 91% 83.8% 88%
Wind Speed: 0mph 0mph 0mph 0mph
Wind Gust: 0mph 0mph - -
WindCalm - - North
Pressure: 30.05 in 30.06 in 30.04 in -
Precipitation: 0.00 in      
Historical Graphs
 
 
Tabular Data for October 14, 2019
Time Temperature Dew Point Pressure Wind Wind Speed Wind Gust Humidity Rainfall Rate (Hourly) solar
00:04 37.1 °F 32.7 °F 30.05 in Calm     83.9% 0.00 in 0 W/m2
00:09 37 °F 32.5 °F 30.05 in Calm     83.8% 0.00 in 0 W/m2
00:14 36.8 °F 32.4 °F 30.05 in Calm     84% 0.00 in 0 W/m2
00:19 36.7 °F 32.3 °F 30.05 in Calm     84% 0.00 in 0 W/m2
00:24 36.6 °F 32.3 °F 30.05 in Calm     84.2% 0.00 in 0 W/m2
00:29 36.5 °F 32.4 °F 30.05 in Calm     85% 0.00 in 0 W/m2
00:34 36.4 °F 32.3 °F 30.05 in Calm     85% 0.00 in 0 W/m2
00:39 36.3 °F 32.2 °F 30.05 in Calm     85% 0.00 in 0 W/m2
00:44 36.2 °F 32.3 °F 30.04 in Calm     85.6% 0.00 in 0 W/m2
00:49 36.1 °F 32.3 °F 30.05 in Calm     86% 0.00 in 0 W/m2
00:54 35.9 °F 32.1 °F 30.05 in Calm     86% 0.00 in 0 W/m2
00:59 35.7 °F 31.9 °F 30.05 in Calm     86% 0.00 in 0 W/m2
01:04 35.6 °F 31.8 °F 30.05 in Calm     86% 0.00 in 0 W/m2
01:09 35.5 °F 31.7 °F 30.05 in Calm     86.1% 0.00 in 0 W/m2
01:14 35.4 °F 31.9 °F 30.05 in Calm     87% 0.00 in 0 W/m2
01:19 35.2 °F 31.8 °F 30.05 in Calm     87% 0.00 in 0 W/m2
01:24 35.1 °F 31.7 °F 30.05 in Calm     87% 0.00 in 0 W/m2
01:29 35 °F 31.6 °F 30.05 in Calm     87% 0.00 in 0 W/m2
01:34 34.9 °F 31.4 °F 30.05 in Calm     87% 0.00 in 0 W/m2
01:39 34.8 °F 31.3 °F 30.05 in Calm     87% 0.00 in 0 W/m2
01:44 34.6 °F 31.2 °F 30.05 in Calm     87% 0.00 in 0 W/m2
01:49 34.4 °F 31 °F 30.05 in Calm     87% 0.00 in 0 W/m2
01:54 34.3 °F 30.9 °F 30.06 in Calm     87% 0.00 in 0 W/m2
01:59 34.2 °F 30.8 °F 30.06 in Calm     87% 0.00 in 0 W/m2
02:04 34.1 °F 30.7 °F 30.06 in Calm     87% 0.00 in 0 W/m2
02:09 34 °F 30.8 °F 30.06 in Calm     88% 0.00 in 0 W/m2
02:14 34 °F 30.8 °F 30.06 in Calm     88% 0.00 in 0 W/m2
02:19 33.9 °F 30.7 °F 30.06 in Calm     88% 0.00 in 0 W/m2
02:24 33.9 °F 30.7 °F 30.06 in Calm     88% 0.00 in 0 W/m2
02:29 33.8 °F 30.8 °F 30.06 in Calm     88.7% 0.00 in 0 W/m2
02:34 33.8 °F 30.8 °F 30.06 in Calm     88.6% 0.00 in 0 W/m2
02:39 33.7 °F 30.8 °F 30.06 in Calm     89% 0.00 in 0 W/m2
02:44 33.6 °F 30.7 °F 30.06 in Calm     89% 0.00 in 0 W/m2
02:49 33.5 °F 30.6 °F 30.06 in Calm     89% 0.00 in 0 W/m2
02:54 33.4 °F 30.5 °F 30.06 in Calm     89% 0.00 in 0 W/m2
02:59 33.4 °F 30.5 °F 30.06 in Calm     89% 0.00 in 0 W/m2
03:04 33.4 °F 30.5 °F 30.05 in Calm     89% 0.00 in 0 W/m2
03:09 33.3 °F 30.4 °F 30.05 in Calm     89% 0.00 in 0 W/m2
03:14 33.2 °F 30.3 °F 30.05 in Calm     89% 0.00 in 0 W/m2
03:19 33.2 °F 30.6 °F 30.05 in Calm     90% 0.00 in 0 W/m2
03:24 33.2 °F 30.6 °F 30.05 in Calm     90% 0.00 in 0 W/m2
03:29 33.3 °F 30.7 °F 30.05 in Calm     90% 0.00 in 0 W/m2
03:34 33.5 °F 30.9 °F 30.05 in Calm     90% 0.00 in 0 W/m2
03:39 33.7 °F 31.2 °F 30.05 in Calm     90.5% 0.00 in 0 W/m2
03:44 33.9 °F 31.5 °F 30.05 in Calm     91% 0.00 in 0 W/m2
03:49 34.1 °F 31.7 °F 30.04 in Calm     91% 0.00 in 0 W/m2
03:54 34.3 °F 31.9 °F 30.05 in Calm     91% 0.00 in 0 W/m2
03:55 34.3 °F 32 °F 30.05 in Calm     91% 0.00 in 0 W/m2
66th and South
Compliments of Weather Underground - 4 mb